EET,Max TemperatureF,Mean TemperatureF,Min TemperatureF,Max Dew PointF,MeanDew PointF,Min DewpointF,Max Humidity, Mean Humidity, Min Humidity, Max Sea Level PressureIn, Mean Sea Level PressureIn, Min Sea Level PressureIn, Max VisibilityMiles, Mean VisibilityMiles, Min VisibilityMiles, Max Wind SpeedMPH, Mean Wind SpeedMPH, Max Gust SpeedMPH,PrecipitationIn, CloudCover, Events, WindDirDegrees
2011-10-1,77,70,64,55,53,48,73,58,36,30.27,30.20,30.12,6,6,6,9,5,,0.00,4,,166
2011-10-2,80,68,57,59,53,48,82,59,32,30.12,30.08,30.04,6,6,6,12,5,,0.00,2,,138
2011-10-3,75,68,60,61,55,50,73,64,53,30.21,30.17,30.09,6,6,6,12,6,,0.00,2,,151
2011-10-4,77,68,59,61,56,52,88,71,41,30.21,30.16,30.09,6,6,6,10,6,,0.00,1,,150
2011-10-5,78,68,57,61,53,43,94,64,28,30.18,30.13,30.09,6,6,6,9,6,,0.00,1,,156
2011-10-6,80,68,55,57,51,46,77,58,32,30.15,30.09,30.04,6,6,6,10,6,,0.00,1,,132
2011-10-7,80,68,55,63,55,48,77,63,45,30.04,29.93,29.83,6,6,6,13,6,,0.00,2,,125
2011-10-8,77,68,60,61,55,52,88,62,41,29.83,29.71,29.62,6,6,6,20,8,,0.00,5,Rain,123
2011-10-9,64,58,51,61,47,39,94,68,48,29.77,29.65,29.56,6,6,6,29,14,40,0.00,6,Rain,344
2011-10-10,55,52,50,46,44,37,82,74,58,29.89,29.80,29.74,6,6,6,23,17,28,0.00,7,Rain,346
2011-10-11,64,58,53,45,42,39,67,54,40,29.98,29.93,29.89,6,6,6,17,13,,0.00,6,,335
2011-10-12,73,62,51,57,49,41,77,61,46,30.01,29.98,29.95,6,6,6,17,6,,0.00,3,,320
2011-10-13,75,64,53,61,54,50,94,73,47,30.06,30.01,29.98,6,6,6,20,4,,0.00,2,Rain,187
2011-10-14,62,58,53,52,47,43,94,70,55,30.27,30.16,30.06,6,6,5,26,14,28,0.00,6,Rain,357
2011-10-15,55,53,51,48,46,43,88,76,63,30.27,30.24,30.21,6,6,6,14,7,,0.00,7,Rain,344
2011-10-16,57,52,48,45,34,27,72,52,33,30.24,30.19,30.15,6,6,6,18,11,28,0.00,5,,2
2011-10-17,55,47,39,32,28,25,65,45,35,30.27,30.19,30.09,6,6,6,25,11,,0.00,3,,354
2011-10-18,59,52,42,32,27,23,66,42,25,30.27,30.20,30.15,6,6,6,20,12,23,0.00,1,,347
2011-10-19,62,50,37,43,35,30,81,61,32,30.30,30.27,30.24,,,,8,5,,0.00,,,128
2011-10-20,62,52,41,52,43,34,87,72,63,30.24,30.21,30.15,6,6,5,8,6,,0.00,1,,83
2011-10-21,64,54,44,55,49,41,100,85,49,30.21,30.18,30.12,6,3,0,9,5,,0.00,3,Fog,216
2011-10-22,66,56,46,55,50,45,100,78,56,30.24,30.21,30.18,6,6,4,10,5,,0.00,2,Fog,105
2011-10-23,60,54,48,54,49,43,88,78,59,30.24,30.21,30.18,6,5,1,10,5,,0.00,5,,316
2011-10-24,62,56,50,54,49,45,94,75,52,30.21,30.17,30.15,6,5,4,8,4,,0.00,6,,281
2011-10-25,62,56,50,50,47,43,82,70,55,30.24,30.20,30.18,6,6,2,9,5,,0.00,5,,130
2011-10-26,62,56,51,50,45,39,88,64,42,30.27,30.25,30.24,6,6,6,9,4,,0.00,6,,111
2011-10-27,60,54,46,43,40,37,71,57,42,30.39,30.33,30.27,6,6,6,16,9,,0.00,3,,120
2011-10-28,59,50,42,43,39,36,81,66,48,30.42,30.39,30.36,6,6,6,10,6,,0.00,3,,114
2011-10-29,59,50,42,46,42,37,82,73,51,30.42,30.37,30.33,6,6,6,8,5,,0.00,3,,118
2011-10-30,59,52,44,43,38,36,76,59,42,30.36,30.32,30.27,6,6,6,7,5,,0.00,3,,122
2011-10-31,59,50,42,46,40,36,87,73,55,30.30,30.25,30.21,6,6,5,7,5,,0.00,2,,113